sensor_id;sensor_type;location;lat;lon;timestamp;pressure;altitude;pressure_sealevel;temperature;humidity
49827;BME280;35715;51.570;6.036;2024-03-25T00:01:05;100641.06;;;6.93;93.72
49827;BME280;35715;51.570;6.036;2024-03-25T00:03:31;100638.16;;;6.89;94.17
49827;BME280;35715;51.570;6.036;2024-03-25T00:05:56;100626.75;;;6.85;94.27
49827;BME280;35715;51.570;6.036;2024-03-25T00:08:22;100635.88;;;6.82;94.39
49827;BME280;35715;51.570;6.036;2024-03-25T00:10:47;100633.06;;;6.79;94.50
49827;BME280;35715;51.570;6.036;2024-03-25T00:13:13;100632.69;;;6.74;94.75
49827;BME280;35715;51.570;6.036;2024-03-25T00:15:38;100637.03;;;6.75;94.92
49827;BME280;35715;51.570;6.036;2024-03-25T00:18:04;100638.72;;;6.74;95.04
49827;BME280;35715;51.570;6.036;2024-03-25T00:20:29;100641.91;;;6.72;94.95
49827;BME280;35715;51.570;6.036;2024-03-25T00:22:55;100639.13;;;6.69;95.02
49827;BME280;35715;51.570;6.036;2024-03-25T00:25:20;100637.09;;;6.65;95.22
49827;BME280;35715;51.570;6.036;2024-03-25T00:27:45;100639.53;;;6.63;95.23
49827;BME280;35715;51.570;6.036;2024-03-25T00:30:11;100636.75;;;6.60;95.39
49827;BME280;35715;51.570;6.036;2024-03-25T00:32:37;100636.47;;;6.57;95.70
49827;BME280;35715;51.570;6.036;2024-03-25T00:35:03;100646.59;;;6.55;95.84
49827;BME280;35715;51.570;6.036;2024-03-25T00:37:29;100640.47;;;6.53;96.26
49827;BME280;35715;51.570;6.036;2024-03-25T00:39:54;100635.84;;;6.49;96.11
49827;BME280;35715;51.570;6.036;2024-03-25T00:42:20;100635.59;;;6.46;96.07
49827;BME280;35715;51.570;6.036;2024-03-25T00:44:48;100629.34;;;6.43;96.24
49827;BME280;35715;51.570;6.036;2024-03-25T00:47:13;100639.47;;;6.41;96.46
49827;BME280;35715;51.570;6.036;2024-03-25T00:49:39;100623.09;;;6.39;96.46
49827;BME280;35715;51.570;6.036;2024-03-25T00:52:04;100627.97;;;6.36;96.58
49827;BME280;35715;51.570;6.036;2024-03-25T00:54:30;100624.38;;;6.34;96.73
49827;BME280;35715;51.570;6.036;2024-03-25T00:56:55;100626.03;;;6.33;96.62
49827;BME280;35715;51.570;6.036;2024-03-25T00:59:23;100626.69;;;6.31;96.63
49827;BME280;35715;51.570;6.036;2024-03-25T01:01:49;100627.44;;;6.30;96.77
49827;BME280;35715;51.570;6.036;2024-03-25T01:04:18;100623.75;;;6.26;96.77
49827;BME280;35715;51.570;6.036;2024-03-25T01:06:43;100629.63;;;6.25;96.79
49827;BME280;35715;51.570;6.036;2024-03-25T01:09:08;100626.06;;;6.23;96.81
49827;BME280;35715;51.570;6.036;2024-03-25T01:11:35;100624.13;;;6.20;96.87
49827;BME280;35715;51.570;6.036;2024-03-25T01:14:00;100626.56;;;6.19;97.01
49827;BME280;35715;51.570;6.036;2024-03-25T01:16:26;100632.38;;;6.16;97.00
49827;BME280;35715;51.570;6.036;2024-03-25T01:18:51;100636.44;;;6.14;97.06
49827;BME280;35715;51.570;6.036;2024-03-25T01:21:20;100628.63;;;6.13;97.19
49827;BME280;35715;51.570;6.036;2024-03-25T01:23:45;100632.63;;;6.09;96.91
49827;BME280;35715;51.570;6.036;2024-03-25T01:26:10;100631.47;;;6.06;97.25
49827;BME280;35715;51.570;6.036;2024-03-25T01:28:36;100629.69;;;6.04;97.32
49827;BME280;35715;51.570;6.036;2024-03-25T01:31:01;100630.31;;;6.02;97.29
49827;BME280;35715;51.570;6.036;2024-03-25T01:33:26;100630.97;;;5.99;97.32
49827;BME280;35715;51.570;6.036;2024-03-25T01:35:52;100640.91;;;5.96;97.29
49827;BME280;35715;51.570;6.036;2024-03-25T01:38:19;100641.88;;;5.97;97.38
49827;BME280;35715;51.570;6.036;2024-03-25T01:40:45;100644.16;;;5.94;97.36
49827;BME280;35715;51.570;6.036;2024-03-25T01:43:19;100635.41;;;5.92;97.32
49827;BME280;35715;51.570;6.036;2024-03-25T01:45:44;100631.97;;;5.91;97.23
49827;BME280;35715;51.570;6.036;2024-03-25T01:48:11;100637.72;;;5.89;97.58
49827;BME280;35715;51.570;6.036;2024-03-25T01:50:40;100637.59;;;5.87;97.38
49827;BME280;35715;51.570;6.036;2024-03-25T01:53:07;100638.25;;;5.84;97.62
49827;BME280;35715;51.570;6.036;2024-03-25T01:55:34;100632.88;;;5.81;97.47
49827;BME280;35715;51.570;6.036;2024-03-25T01:58:01;100637.09;;;5.81;97.48
49827;BME280;35715;51.570;6.036;2024-03-25T02:00:27;100640.16;;;5.77;97.40
49827;BME280;35715;51.570;6.036;2024-03-25T02:02:53;100645.16;;;5.75;97.71
49827;BME280;35715;51.570;6.036;2024-03-25T02:05:20;100641.56;;;5.73;97.48
49827;BME280;35715;51.570;6.036;2024-03-25T02:07:46;100644.00;;;5.72;97.94
49827;BME280;35715;51.570;6.036;2024-03-25T02:10:12;100646.69;;;5.73;97.94
49827;BME280;35715;51.570;6.036;2024-03-25T02:12:41;100651.31;;;5.77;98.29
49827;BME280;35715;51.570;6.036;2024-03-25T02:15:08;100648.50;;;5.84;98.43
49827;BME280;35715;51.570;6.036;2024-03-25T02:17:34;100646.19;;;5.88;98.16
49827;BME280;35715;51.570;6.036;2024-03-25T02:20:00;100653.34;;;5.92;97.89
49827;BME280;35715;51.570;6.036;2024-03-25T02:22:26;100645.66;;;5.92;97.86
49827;BME280;35715;51.570;6.036;2024-03-25T02:24:53;100642.75;;;5.97;98.08
49827;BME280;35715;51.570;6.036;2024-03-25T02:27:18;100651.06;;;6.05;97.97
49827;BME280;35715;51.570;6.036;2024-03-25T02:29:44;100647.38;;;6.12;98.05
49827;BME280;35715;51.570;6.036;2024-03-25T02:32:10;100649.50;;;6.17;97.81
49827;BME280;35715;51.570;6.036;2024-03-25T02:34:43;100649.00;;;6.21;97.55
49827;BME280;35715;51.570;6.036;2024-03-25T02:37:09;100647.44;;;6.24;97.30
49827;BME280;35715;51.570;6.036;2024-03-25T02:39:35;100648.59;;;6.27;97.29
49827;BME280;35715;51.570;6.036;2024-03-25T02:42:01;100653.84;;;6.29;96.95
49827;BME280;35715;51.570;6.036;2024-03-25T02:44:26;100641.41;;;6.33;97.20
49827;BME280;35715;51.570;6.036;2024-03-25T02:46:52;100647.44;;;6.34;96.84
49827;BME280;35715;51.570;6.036;2024-03-25T02:49:17;100643.34;;;6.36;96.78
49827;BME280;35715;51.570;6.036;2024-03-25T02:51:43;100644.09;;;6.35;96.65
49827;BME280;35715;51.570;6.036;2024-03-25T02:54:13;100648.84;;;6.41;96.74
49827;BME280;35715;51.570;6.036;2024-03-25T02:56:40;100647.94;;;6.40;96.67
49827;BME280;35715;51.570;6.036;2024-03-25T02:59:06;100648.03;;;6.42;96.53
49827;BME280;35715;51.570;6.036;2024-03-25T03:01:32;100646.53;;;6.44;96.52
49827;BME280;35715;51.570;6.036;2024-03-25T03:03:57;100639.84;;;6.46;96.44
49827;BME280;35715;51.570;6.036;2024-03-25T03:06:22;100646.09;;;6.49;96.80
49827;BME280;35715;51.570;6.036;2024-03-25T03:08:48;100636.09;;;6.52;96.54
49827;BME280;35715;51.570;6.036;2024-03-25T03:11:13;100633.53;;;6.52;96.47
49827;BME280;35715;51.570;6.036;2024-03-25T03:13:39;100634.31;;;6.51;96.45
49827;BME280;35715;51.570;6.036;2024-03-25T03:16:04;100642.25;;;6.54;96.44
49827;BME280;35715;51.570;6.036;2024-03-25T03:18:30;100643.16;;;6.55;96.38
49827;BME280;35715;51.570;6.036;2024-03-25T03:20:55;100630.31;;;6.55;96.39
49827;BME280;35715;51.570;6.036;2024-03-25T03:23:21;100633.66;;;6.54;96.09
49827;BME280;35715;51.570;6.036;2024-03-25T03:25:47;100635.84;;;6.49;96.06
49827;BME280;35715;51.570;6.036;2024-03-25T03:28:12;100628.94;;;6.48;96.22
49827;BME280;35715;51.570;6.036;2024-03-25T03:30:37;100629.72;;;6.47;96.10
49827;BME280;35715;51.570;6.036;2024-03-25T03:33:03;100628.72;;;6.45;96.07
49827;BME280;35715;51.570;6.036;2024-03-25T03:35:28;100632.91;;;6.45;96.26
49827;BME280;35715;51.570;6.036;2024-03-25T03:37:54;100628.84;;;6.47;96.37
49827;BME280;35715;51.570;6.036;2024-03-25T03:40:19;100631.41;;;6.47;96.30
49827;BME280;35715;51.570;6.036;2024-03-25T03:42:47;100621.91;;;6.46;96.23
49827;BME280;35715;51.570;6.036;2024-03-25T03:45:15;100631.41;;;6.47;96.24
49827;BME280;35715;51.570;6.036;2024-03-25T03:47:41;100622.66;;;6.45;96.32
49827;BME280;35715;51.570;6.036;2024-03-25T03:50:06;100616.53;;;6.43;95.98
49827;BME280;35715;51.570;6.036;2024-03-25T03:52:32;100621.16;;;6.36;96.10
49827;BME280;35715;51.570;6.036;2024-03-25T03:54:58;100618.13;;;6.30;96.18
49827;BME280;35715;51.570;6.036;2024-03-25T03:57:23;100621.06;;;6.25;96.48
49827;BME280;35715;51.570;6.036;2024-03-25T03:59:48;100620.69;;;6.20;96.42
49827;BME280;35715;51.570;6.036;2024-03-25T04:02:14;100618.66;;;6.16;96.54
49827;BME280;35715;51.570;6.036;2024-03-25T04:04:39;100616.63;;;6.12;96.92
49827;BME280;35715;51.570;6.036;2024-03-25T04:07:05;100612.91;;;6.08;97.11
49827;BME280;35715;51.570;6.036;2024-03-25T04:09:30;100613.69;;;6.07;97.26
49827;BME280;35715;51.570;6.036;2024-03-25T04:11:56;100619.56;;;6.06;97.29
49827;BME280;35715;51.570;6.036;2024-03-25T04:14:21;100621.88;;;6.03;97.19
49827;BME280;35715;51.570;6.036;2024-03-25T04:16:46;100618.66;;;6.06;97.54
49827;BME280;35715;51.570;6.036;2024-03-25T04:19:12;100623.16;;;6.08;97.69
49827;BME280;35715;51.570;6.036;2024-03-25T04:21:38;100613.41;;;6.14;97.77
49827;BME280;35715;51.570;6.036;2024-03-25T04:24:04;100616.09;;;6.16;97.38
49827;BME280;35715;51.570;6.036;2024-03-25T04:26:30;100617.63;;;6.14;97.24
49827;BME280;35715;51.570;6.036;2024-03-25T04:28:58;100615.59;;;6.10;96.90
49827;BME280;35715;51.570;6.036;2024-03-25T04:31:23;100612.41;;;6.02;96.81
49827;BME280;35715;51.570;6.036;2024-03-25T04:33:48;100619.53;;;5.96;96.66
49827;BME280;35715;51.570;6.036;2024-03-25T04:36:13;100615.47;;;5.88;96.77
49827;BME280;35715;51.570;6.036;2024-03-25T04:38:39;100626.09;;;5.82;96.66
49827;BME280;35715;51.570;6.036;2024-03-25T04:41:04;100625.59;;;5.76;97.15
49827;BME280;35715;51.570;6.036;2024-03-25T04:43:30;100621.84;;;5.72;97.10
49827;BME280;35715;51.570;6.036;2024-03-25T04:45:55;100619.84;;;5.68;97.24
49827;BME280;35715;51.570;6.036;2024-03-25T04:48:20;100619.59;;;5.65;97.50
49827;BME280;35715;51.570;6.036;2024-03-25T04:50:46;100630.56;;;5.64;97.69
49827;BME280;35715;51.570;6.036;2024-03-25T04:53:11;100621.09;;;5.63;97.68
49827;BME280;35715;51.570;6.036;2024-03-25T04:55:37;100629.56;;;5.62;97.82
49827;BME280;35715;51.570;6.036;2024-03-25T04:58:02;100630.19;;;5.59;97.51
49827;BME280;35715;51.570;6.036;2024-03-25T05:00:28;100629.81;;;5.55;97.59
49827;BME280;35715;51.570;6.036;2024-03-25T05:02:53;100633.63;;;5.49;97.37
49827;BME280;35715;51.570;6.036;2024-03-25T05:05:19;100632.34;;;5.44;97.63
49827;BME280;35715;51.570;6.036;2024-03-25T05:07:44;100636.19;;;5.39;97.57
49827;BME280;35715;51.570;6.036;2024-03-25T05:10:09;100640.94;;;5.35;97.64
49827;BME280;35715;51.570;6.036;2024-03-25T05:12:35;100638.88;;;5.30;97.93
49827;BME280;35715;51.570;6.036;2024-03-25T05:15:00;100635.00;;;5.25;97.73
49827;BME280;35715;51.570;6.036;2024-03-25T05:17:26;100628.75;;;5.22;98.00
49827;BME280;35715;51.570;6.036;2024-03-25T05:19:51;100638.84;;;5.20;98.00
49827;BME280;35715;51.570;6.036;2024-03-25T05:22:17;100633.47;;;5.17;98.29
49827;BME280;35715;51.570;6.036;2024-03-25T05:24:42;100629.75;;;5.13;98.11
49827;BME280;35715;51.570;6.036;2024-03-25T05:27:07;100634.63;;;5.10;98.32
49827;BME280;35715;51.570;6.036;2024-03-25T05:29:33;100641.38;;;5.10;98.42
49827;BME280;35715;51.570;6.036;2024-03-25T05:32:00;100645.59;;;5.09;98.56
49827;BME280;35715;51.570;6.036;2024-03-25T05:34:26;100639.47;;;5.07;98.75
49827;BME280;35715;51.570;6.036;2024-03-25T05:36:51;100651.34;;;5.07;98.59
49827;BME280;35715;51.570;6.036;2024-03-25T05:39:16;100646.09;;;5.05;98.89
49827;BME280;35715;51.570;6.036;2024-03-25T05:41:42;100647.63;;;5.03;98.92
49827;BME280;35715;51.570;6.036;2024-03-25T05:44:07;100653.50;;;5.02;98.92
49827;BME280;35715;51.570;6.036;2024-03-25T05:46:33;100653.50;;;5.02;99.06
49827;BME280;35715;51.570;6.036;2024-03-25T05:49:01;100660.41;;;5.03;99.46
49827;BME280;35715;51.570;6.036;2024-03-25T05:51:27;100658.59;;;5.02;99.19
49827;BME280;35715;51.570;6.036;2024-03-25T05:53:52;100663.97;;;5.05;99.17
49827;BME280;35715;51.570;6.036;2024-03-25T05:56:18;100661.44;;;5.05;99.38
49827;BME280;35715;51.570;6.036;2024-03-25T05:58:43;100660.66;;;5.06;99.31
49827;BME280;35715;51.570;6.036;2024-03-25T06:01:09;100657.50;;;5.09;99.36
49827;BME280;35715;51.570;6.036;2024-03-25T06:03:34;100656.84;;;5.11;99.28
49827;BME280;35715;51.570;6.036;2024-03-25T06:05:59;100659.66;;;5.14;99.39
49827;BME280;35715;51.570;6.036;2024-03-25T06:08:25;100650.22;;;5.24;99.45
49827;BME280;35715;51.570;6.036;2024-03-25T06:10:50;100655.13;;;5.41;99.36
49827;BME280;35715;51.570;6.036;2024-03-25T06:13:16;100651.97;;;5.54;99.16
49827;BME280;35715;51.570;6.036;2024-03-25T06:15:42;100654.88;;;5.69;98.86
49827;BME280;35715;51.570;6.036;2024-03-25T06:18:07;100648.50;;;5.84;98.45
49827;BME280;35715;51.570;6.036;2024-03-25T06:20:32;100644.81;;;6.01;97.78
49827;BME280;35715;51.570;6.036;2024-03-25T06:22:58;100644.38;;;6.17;97.23
49827;BME280;35715;51.570;6.036;2024-03-25T06:25:23;100648.84;;;6.41;96.36
49827;BME280;35715;51.570;6.036;2024-03-25T06:27:48;100650.72;;;6.53;96.13
49827;BME280;35715;51.570;6.036;2024-03-25T06:30:14;100640.44;;;6.64;95.32
49827;BME280;35715;51.570;6.036;2024-03-25T06:32:57;100640.09;;;6.81;94.92
49827;BME280;35715;51.570;6.036;2024-03-25T06:35:45;100646.81;;;7.01;94.34
49827;BME280;35715;51.570;6.036;2024-03-25T06:38:10;100642.13;;;7.29;93.56
49827;BME280;35715;51.570;6.036;2024-03-25T06:40:37;100643.47;;;7.58;92.47
49827;BME280;35715;51.570;6.036;2024-03-25T06:43:03;100653.06;;;7.83;91.47
49827;BME280;35715;51.570;6.036;2024-03-25T06:45:28;100642.63;;;8.27;89.89
49827;BME280;35715;51.570;6.036;2024-03-25T06:47:54;100642.84;;;8.78;88.16
49827;BME280;35715;51.570;6.036;2024-03-25T06:50:20;100640.53;;;9.18;86.18
49827;BME280;35715;51.570;6.036;2024-03-25T06:52:45;100642.06;;;9.53;84.18
49827;BME280;35715;51.570;6.036;2024-03-25T06:55:10;100633.66;;;9.94;82.96
49827;BME280;35715;51.570;6.036;2024-03-25T06:57:36;100640.09;;;10.39;81.19
49827;BME280;35715;51.570;6.036;2024-03-25T07:00:01;100643.94;;;10.73;79.79
49827;BME280;35715;51.570;6.036;2024-03-25T07:02:31;100630.06;;;11.12;78.31
49827;BME280;35715;51.570;6.036;2024-03-25T07:04:56;100638.38;;;11.50;76.73
49827;BME280;35715;51.570;6.036;2024-03-25T07:07:22;100637.00;;;11.85;74.49
49827;BME280;35715;51.570;6.036;2024-03-25T07:09:47;100642.03;;;12.12;72.87
49827;BME280;35715;51.570;6.036;2024-03-25T07:12:12;100640.84;;;12.51;71.24
49827;BME280;35715;51.570;6.036;2024-03-25T07:14:41;100639.88;;;12.81;69.33
49827;BME280;35715;51.570;6.036;2024-03-25T07:17:06;100648.19;;;13.06;68.12
49827;BME280;35715;51.570;6.036;2024-03-25T07:19:31;100638.69;;;13.38;67.20
49827;BME280;35715;51.570;6.036;2024-03-25T07:21:57;100633.41;;;13.70;65.49
49827;BME280;35715;51.570;6.036;2024-03-25T07:24:22;100641.44;;;14.09;64.67
49827;BME280;35715;51.570;6.036;2024-03-25T07:26:47;100636.94;;;14.41;62.85
49827;BME280;35715;51.570;6.036;2024-03-25T07:29:13;100626.00;;;14.64;61.57
49827;BME280;35715;51.570;6.036;2024-03-25T07:31:38;100623.19;;;14.97;60.44
49827;BME280;35715;51.570;6.036;2024-03-25T07:34:04;100620.69;;;15.18;58.93
49827;BME280;35715;51.570;6.036;2024-03-25T07:36:29;100616.75;;;15.46;57.55
49827;BME280;35715;51.570;6.036;2024-03-25T07:38:58;100614.69;;;15.78;56.75
49827;BME280;35715;51.570;6.036;2024-03-25T07:41:24;100626.94;;;16.02;55.61
49827;BME280;35715;51.570;6.036;2024-03-25T07:43:49;100618.09;;;16.40;55.43
49827;BME280;35715;51.570;6.036;2024-03-25T07:46:21;100622.03;;;16.74;53.94
49827;BME280;35715;51.570;6.036;2024-03-25T07:48:49;100618.16;;;17.08;52.90
49827;BME280;35715;51.570;6.036;2024-03-25T07:51:14;100614.72;;;17.33;51.48
49827;BME280;35715;51.570;6.036;2024-03-25T07:53:39;100618.78;;;17.73;50.94
49827;BME280;35715;51.570;6.036;2024-03-25T07:56:07;100622.34;;;18.01;50.29
49827;BME280;35715;51.570;6.036;2024-03-25T07:58:33;100621.69;;;18.34;48.73
49827;BME280;35715;51.570;6.036;2024-03-25T08:01:00;100625.28;;;18.65;47.72
49827;BME280;35715;51.570;6.036;2024-03-25T08:03:28;100610.31;;;18.87;46.86
49827;BME280;35715;51.570;6.036;2024-03-25T08:05:53;100616.38;;;19.16;46.16
49827;BME280;35715;51.570;6.036;2024-03-25T08:08:18;100618.84;;;19.42;45.10
49827;BME280;35715;51.570;6.036;2024-03-25T08:10:45;100619.78;;;19.76;45.40
49827;BME280;35715;51.570;6.036;2024-03-25T08:13:10;100630.19;;;20.05;43.88
49827;BME280;35715;51.570;6.036;2024-03-25T08:15:36;100618.72;;;20.37;43.03
49827;BME280;35715;51.570;6.036;2024-03-25T08:18:02;100622.66;;;20.55;41.89
49827;BME280;35715;51.570;6.036;2024-03-25T08:20:27;100620.38;;;20.69;42.83
49827;BME280;35715;51.570;6.036;2024-03-25T08:22:53;100623.78;;;21.06;41.84
49827;BME280;35715;51.570;6.036;2024-03-25T08:25:18;100621.72;;;21.32;40.66
49827;BME280;35715;51.570;6.036;2024-03-25T08:27:44;100630.09;;;21.57;40.61
49827;BME280;35715;51.570;6.036;2024-03-25T08:30:10;100627.19;;;21.89;40.25
49827;BME280;35715;51.570;6.036;2024-03-25T08:32:35;100633.56;;;22.02;39.60
49827;BME280;35715;51.570;6.036;2024-03-25T08:35:00;100632.03;;;22.16;39.80
49827;BME280;35715;51.570;6.036;2024-03-25T08:37:26;100630.41;;;22.23;39.06
49827;BME280;35715;51.570;6.036;2024-03-25T08:39:51;100627.06;;;22.31;38.42
49827;BME280;35715;51.570;6.036;2024-03-25T08:42:17;100628.72;;;22.26;38.42
49827;BME280;35715;51.570;6.036;2024-03-25T08:44:42;100626.72;;;22.11;38.08
49827;BME280;35715;51.570;6.036;2024-03-25T08:47:07;100621.47;;;22.13;38.37
49827;BME280;35715;51.570;6.036;2024-03-25T08:49:33;100625.94;;;22.17;38.39
49827;BME280;35715;51.570;6.036;2024-03-25T08:51:58;100631.38;;;22.28;37.98
49827;BME280;35715;51.570;6.036;2024-03-25T08:54:23;100628.16;;;21.92;38.00
49827;BME280;35715;51.570;6.036;2024-03-25T08:56:48;100625.25;;;20.91;39.02
49827;BME280;35715;51.570;6.036;2024-03-25T08:59:14;100617.53;;;20.99;39.19
49827;BME280;35715;51.570;6.036;2024-03-25T09:01:39;100618.72;;;21.55;38.96
49827;BME280;35715;51.570;6.036;2024-03-25T09:04:05;100617.34;;;21.33;37.85
49827;BME280;35715;51.570;6.036;2024-03-25T09:06:30;100611.41;;;21.41;37.85
49827;BME280;35715;51.570;6.036;2024-03-25T09:08:56;100616.34;;;20.12;39.64
49827;BME280;35715;51.570;6.036;2024-03-25T09:11:40;100608.56;;;21.31;37.89
49827;BME280;35715;51.570;6.036;2024-03-25T09:14:05;100612.19;;;21.37;36.89
49827;BME280;35715;51.570;6.036;2024-03-25T09:16:31;100609.78;;;19.93;38.86
49827;BME280;35715;51.570;6.036;2024-03-25T09:18:56;100602.91;;;19.02;39.67
49827;BME280;35715;51.570;6.036;2024-03-25T09:21:22;100609.47;;;18.60;40.55
49827;BME280;35715;51.570;6.036;2024-03-25T09:23:49;100601.38;;;18.82;42.10
49827;BME280;35715;51.570;6.036;2024-03-25T09:26:14;100609.75;;;18.42;42.52
49827;BME280;35715;51.570;6.036;2024-03-25T09:28:40;100606.56;;;18.51;42.02
49827;BME280;35715;51.570;6.036;2024-03-25T09:31:05;100608.81;;;18.13;42.60
49827;BME280;35715;51.570;6.036;2024-03-25T09:33:31;100591.78;;;18.80;42.72
49827;BME280;35715;51.570;6.036;2024-03-25T09:35:56;100604.38;;;18.38;42.05
49827;BME280;35715;51.570;6.036;2024-03-25T09:38:24;100601.38;;;17.74;43.54
49827;BME280;35715;51.570;6.036;2024-03-25T09:40:52;100602.84;;;18.43;43.05
49827;BME280;35715;51.570;6.036;2024-03-25T09:43:30;100589.13;;;18.23;43.03
49827;BME280;35715;51.570;6.036;2024-03-25T09:45:57;100587.47;;;19.11;42.93
49827;BME280;35715;51.570;6.036;2024-03-25T09:48:24;100593.44;;;18.22;43.43
49827;BME280;35715;51.570;6.036;2024-03-25T09:50:50;100590.44;;;17.84;44.42
49827;BME280;35715;51.570;6.036;2024-03-25T09:53:17;100584.28;;;19.85;41.81
49827;BME280;35715;51.570;6.036;2024-03-25T09:55:43;100583.88;;;19.06;41.92
49827;BME280;35715;51.570;6.036;2024-03-25T09:58:08;100582.44;;;18.31;42.98
49827;BME280;35715;51.570;6.036;2024-03-25T10:00:36;100576.25;;;17.76;43.54
49827;BME280;35715;51.570;6.036;2024-03-25T10:03:02;100569.22;;;18.26;44.27
49827;BME280;35715;51.570;6.036;2024-03-25T10:05:28;100570.28;;;18.06;42.75
49827;BME280;35715;51.570;6.036;2024-03-25T10:07:53;100568.25;;;17.46;43.36
49827;BME280;35715;51.570;6.036;2024-03-25T10:10:20;100557.88;;;17.23;44.45
49827;BME280;35715;51.570;6.036;2024-03-25T10:12:46;100561.91;;;17.15;44.98
49827;BME280;35715;51.570;6.036;2024-03-25T10:15:17;100556.75;;;17.41;44.39
49827;BME280;35715;51.570;6.036;2024-03-25T10:17:43;100559.50;;;16.97;44.72
49827;BME280;35715;51.570;6.036;2024-03-25T10:20:18;100567.03;;;16.66;44.76
49827;BME280;35715;51.570;6.036;2024-03-25T10:22:44;100547.88;;;16.42;45.99
49827;BME280;35715;51.570;6.036;2024-03-25T10:25:27;100555.72;;;16.21;46.84
49827;BME280;35715;51.570;6.036;2024-03-25T10:27:54;100544.41;;;16.20;46.17
49827;BME280;35715;51.570;6.036;2024-03-25T10:30:19;100544.25;;;16.38;46.60
49827;BME280;35715;51.570;6.036;2024-03-25T10:32:45;100531.97;;;16.81;45.03
49827;BME280;35715;51.570;6.036;2024-03-25T10:35:10;100539.88;;;16.60;45.72
49827;BME280;35715;51.570;6.036;2024-03-25T10:37:35;100529.41;;;16.36;45.79
49827;BME280;35715;51.570;6.036;2024-03-25T10:40:03;100523.78;;;16.70;45.18
49827;BME280;35715;51.570;6.036;2024-03-25T10:42:30;100527.31;;;16.49;45.31
49827;BME280;35715;51.570;6.036;2024-03-25T10:44:57;100527.56;;;16.33;46.12
49827;BME280;35715;51.570;6.036;2024-03-25T10:47:25;100528.97;;;16.25;46.53
49827;BME280;35715;51.570;6.036;2024-03-25T10:49:57;100519.31;;;16.22;46.44
49827;BME280;35715;51.570;6.036;2024-03-25T10:52:24;100516.44;;;17.07;46.23
49827;BME280;35715;51.570;6.036;2024-03-25T10:54:54;100501.75;;;19.33;42.00
49827;BME280;35715;51.570;6.036;2024-03-25T10:57:19;100494.47;;;20.26;39.67
49827;BME280;35715;51.570;6.036;2024-03-25T10:59:49;100495.81;;;19.39;39.03
49827;BME280;35715;51.570;6.036;2024-03-25T11:02:14;100497.56;;;19.73;38.95
49827;BME280;35715;51.570;6.036;2024-03-25T11:04:41;100490.34;;;19.99;39.80
49827;BME280;35715;51.570;6.036;2024-03-25T11:07:08;100492.34;;;20.49;38.89
49827;BME280;35715;51.570;6.036;2024-03-25T11:09:33;100505.19;;;19.64;39.25
49827;BME280;35715;51.570;6.036;2024-03-25T11:11:59;100498.91;;;18.92;39.34
49827;BME280;35715;51.570;6.036;2024-03-25T11:14:27;100495.44;;;18.34;39.87
49827;BME280;35715;51.570;6.036;2024-03-25T11:16:54;100489.22;;;18.01;40.80
49827;BME280;35715;51.570;6.036;2024-03-25T11:19:20;100488.81;;;17.89;41.40
49827;BME280;35715;51.570;6.036;2024-03-25T11:21:50;100487.00;;;17.61;42.00
49827;BME280;35715;51.570;6.036;2024-03-25T11:24:15;100488.16;;;17.43;41.95
49827;BME280;35715;51.570;6.036;2024-03-25T11:26:42;100485.72;;;17.75;42.91
49827;BME280;35715;51.570;6.036;2024-03-25T11:29:08;100480.34;;;19.48;39.54
49827;BME280;35715;51.570;6.036;2024-03-25T11:31:34;100478.06;;;21.22;37.29
49827;BME280;35715;51.570;6.036;2024-03-25T11:34:04;100474.16;;;22.65;35.86
49827;BME280;35715;51.570;6.036;2024-03-25T11:36:29;100469.16;;;23.74;33.78
49827;BME280;35715;51.570;6.036;2024-03-25T11:39:00;100460.03;;;24.58;32.59
49827;BME280;35715;51.570;6.036;2024-03-25T11:41:29;100458.81;;;23.99;31.55
49827;BME280;35715;51.570;6.036;2024-03-25T11:43:55;100456.91;;;23.82;31.34
49827;BME280;35715;51.570;6.036;2024-03-25T11:46:24;100451.75;;;23.96;30.86
49827;BME280;35715;51.570;6.036;2024-03-25T11:48:50;100450.25;;;24.37;30.47
49827;BME280;35715;51.570;6.036;2024-03-25T11:51:19;100444.06;;;24.32;30.03
49827;BME280;35715;51.570;6.036;2024-03-25T11:53:44;100443.75;;;22.87;31.21
49827;BME280;35715;51.570;6.036;2024-03-25T11:56:11;100433.88;;;23.55;30.04
49827;BME280;35715;51.570;6.036;2024-03-25T11:58:37;100435.47;;;23.37;29.30
49827;BME280;35715;51.570;6.036;2024-03-25T12:01:03;100432.31;;;23.80;29.79
49827;BME280;35715;51.570;6.036;2024-03-25T12:03:29;100431.63;;;24.03;29.31
49827;BME280;35715;51.570;6.036;2024-03-25T12:05:55;100424.59;;;24.03;27.53
49827;BME280;35715;51.570;6.036;2024-03-25T12:08:23;100424.94;;;24.87;26.90
49827;BME280;35715;51.570;6.036;2024-03-25T12:10:53;100427.53;;;24.64;27.15
49827;BME280;35715;51.570;6.036;2024-03-25T12:13:40;100421.47;;;25.19;25.93
49827;BME280;35715;51.570;6.036;2024-03-25T12:16:07;100418.81;;;25.25;26.37
49827;BME280;35715;51.570;6.036;2024-03-25T12:18:36;100404.75;;;25.60;25.89
49827;BME280;35715;51.570;6.036;2024-03-25T12:21:04;100417.13;;;25.48;25.50
49827;BME280;35715;51.570;6.036;2024-03-25T12:23:32;100411.78;;;25.72;26.36
49827;BME280;35715;51.570;6.036;2024-03-25T12:26:02;100400.34;;;25.79;26.75
49827;BME280;35715;51.570;6.036;2024-03-25T12:28:31;100407.13;;;24.27;26.54
49827;BME280;35715;51.570;6.036;2024-03-25T12:30:56;100390.44;;;23.08;28.53
49827;BME280;35715;51.570;6.036;2024-03-25T12:33:24;100396.78;;;21.80;29.57
49827;BME280;35715;51.570;6.036;2024-03-25T12:35:51;100394.59;;;20.99;31.50
49827;BME280;35715;51.570;6.036;2024-03-25T12:38:27;100379.13;;;20.23;31.12
49827;BME280;35715;51.570;6.036;2024-03-25T12:41:07;100377.97;;;19.72;32.13
49827;BME280;35715;51.570;6.036;2024-03-25T12:43:33;100370.00;;;20.06;31.65
49827;BME280;35715;51.570;6.036;2024-03-25T12:45:59;100360.22;;;19.59;31.05
49827;BME280;35715;51.570;6.036;2024-03-25T12:48:25;100357.28;;;19.45;31.55
49827;BME280;35715;51.570;6.036;2024-03-25T12:50:51;100361.47;;;19.02;31.67